Time;durP1;ratioP1;P1;durP2;ratioP2;P2;SDS_P1;SDS_P2;PMS_P1;PMS_P2;Temp;Humidity;BMP_temperature;BMP_pressure;BME280_temperature;BME280_humidity;BME280_pressure;Samples;Min_cycle;Max_cycle;Signal;HPM_P1;HPM_P2
2021/03/09 00:04:31;;;;;;;14.13;5.88;;;-1.10;99.90;;;;;;20777423;28;20053;-51
2021/03/09 00:14:33;;;;;;;13.05;6.72;;;-0.70;99.90;;;;;;20793172;28;20376;-49
2021/03/09 00:24:35;;;;;;;26.40;13.75;;;-0.50;99.90;;;;;;20792372;28;20482;-48
2021/03/09 00:34:37;;;;;;;14.98;7.38;;;-0.30;99.90;;;;;;20775913;28;20067;-52
2021/03/09 00:44:39;;;;;;;9.32;5.30;;;-0.20;99.90;;;;;;20810163;28;20064;-47
2021/03/09 00:54:41;;;;;;;16.50;8.93;;;-0.20;99.90;;;;;;20808177;28;20045;-47
2021/03/09 01:04:43;;;;;;;16.75;8.85;;;0.00;99.90;;;;;;20807574;28;20053;-48
2021/03/09 01:14:45;;;;;;;12.10;6.88;;;-0.10;99.90;;;;;;20723155;28;20088;-49
2021/03/09 01:24:48;;;;;;;10.60;4.75;;;-0.70;99.90;;;;;;20726382;28;20056;-50
2021/03/09 01:34:50;;;;;;;17.58;6.22;;;-1.10;99.90;;;;;;20788020;28;20060;-47
2021/03/09 01:44:52;;;;;;;14.00;7.05;;;-1.30;99.90;;;;;;20787394;28;20041;-48
2021/03/09 01:54:55;;;;;;;9.70;4.63;;;-1.30;99.90;;;;;;20770183;28;20034;-52
2021/03/09 02:04:56;;;;;;;5.78;3.45;;;-1.20;99.90;;;;;;20770404;28;20045;-50
2021/03/09 02:15:09;;;;;;;9.18;3.92;;;-1.20;99.90;;;;;;20725979;28;20044;-51
2021/03/09 02:25:37;;;;;;;9.40;3.90;;;-0.90;99.90;;;;;;20732719;28;20050;-46
2021/03/09 02:36:08;;;;;;;12.48;6.32;;;-0.90;99.90;;;;;;20720258;28;20104;-50
2021/03/09 02:46:10;;;;;;;7.97;3.53;;;-1.10;99.90;;;;;;20732210;28;20103;-53
2021/03/09 02:56:14;;;;;;;9.80;3.40;;;-1.10;99.90;;;;;;20718118;28;20444;-50
2021/03/09 03:06:17;;;;;;;8.73;4.10;;;-1.10;99.90;;;;;;20741071;28;20049;-46
2021/03/09 03:16:21;;;;;;;8.02;3.70;;;-1.40;99.90;;;;;;20816231;28;20129;-48
2021/03/09 03:26:24;;;;;;;7.13;3.10;;;-1.70;99.90;;;;;;20815286;28;20064;-48
2021/03/09 03:36:26;;;;;;;9.07;3.78;;;-2.00;99.90;;;;;;20779819;28;20042;-48
2021/03/09 03:46:28;;;;;;;9.68;3.80;;;-2.30;99.90;;;;;;20796032;28;20534;-46
2021/03/09 03:56:38;;;;;;;11.48;5.63;;;-2.50;99.90;;;;;;20762704;28;20549;-50
2021/03/09 04:06:44;;;;;;;9.07;4.20;;;-2.50;99.90;;;;;;20784705;28;20050;-49
2021/03/09 04:16:49;;;;;;;12.40;5.20;;;-2.60;99.90;;;;;;20730464;28;20049;-50
2021/03/09 04:26:52;;;;;;;9.18;4.25;;;-2.90;99.90;;;;;;20730158;28;20088;-49
2021/03/09 04:36:54;;;;;;;9.30;4.28;;;-2.80;99.90;;;;;;20710204;28;20104;-46
2021/03/09 04:46:57;;;;;;;10.07;3.95;;;-2.90;99.90;;;;;;20775445;28;20033;-47
2021/03/09 04:56:58;;;;;;;9.85;3.65;;;-2.90;99.90;;;;;;20774151;28;20140;-46
2021/03/09 05:07:00;;;;;;;8.30;3.58;;;-2.90;99.90;;;;;;20795259;28;20054;-48
2021/03/09 05:17:08;;;;;;;9.63;3.78;;;-2.80;99.90;;;;;;20692682;28;20135;-47
2021/03/09 05:27:10;;;;;;;9.85;3.90;;;-2.60;99.90;;;;;;20707578;28;20037;-47
2021/03/09 05:37:12;;;;;;;12.98;4.30;;;-2.70;99.90;;;;;;20723848;28;20042;-55
2021/03/09 05:47:14;;;;;;;12.77;4.90;;;-2.70;99.90;;;;;;20724115;28;20092;-51
2021/03/09 05:57:15;;;;;;;12.88;5.30;;;-2.70;99.90;;;;;;20722936;28;20046;-54
2021/03/09 06:07:18;;;;;;;12.23;5.15;;;-2.50;99.90;;;;;;20737178;28;20131;-48
2021/03/09 06:17:24;;;;;;;13.75;4.45;;;-2.20;99.90;;;;;;20801685;28;20049;-50
2021/03/09 06:27:31;;;;;;;11.15;4.75;;;-2.10;99.90;;;;;;20784941;28;20041;-47
2021/03/09 06:37:32;;;;;;;9.60;4.07;;;-2.00;99.90;;;;;;20803169;28;20068;-46
2021/03/09 06:47:43;;;;;;;12.07;4.75;;;-1.70;99.90;;;;;;20802905;28;20095;-48
2021/03/09 06:58:07;;;;;;;11.50;4.03;;;-1.50;99.90;;;;;;20784680;28;20045;-47
2021/03/09 07:08:22;;;;;;;11.60;5.45;;;-0.90;99.90;;;;;;20785205;28;20053;-50
2021/03/09 07:18:26;;;;;;;14.23;6.57;;;-0.20;99.90;;;;;;20716629;28;20480;-48
2021/03/09 07:40:18;;;;;;;15.52;6.85;;;0.90;99.90;;;;;;20871748;22;20127;-48
2021/03/09 07:50:23;;;;;;;9.95;5.90;;;1.60;99.90;;;;;;20813616;28;20484;-47
2021/03/09 08:00:25;;;;;;;18.17;9.73;;;2.60;99.90;;;;;;20837845;28;20117;-49
2021/03/09 08:10:33;;;;;;;16.95;9.18;;;3.70;99.90;;;;;;20762047;28;20047;-48
2021/03/09 08:21:04;;;;;;;17.10;9.90;;;4.60;99.90;;;;;;20776448;28;20426;-45
2021/03/09 08:31:12;;;;;;;14.23;8.27;;;5.40;98.50;;;;;;20789812;28;20054;-46
2021/03/09 08:41:14;;;;;;;14.00;7.90;;;5.90;93.60;;;;;;20727891;28;20046;-46
2021/03/09 08:51:41;;;;;;;16.67;9.30;;;6.50;92.50;;;;;;20725607;28;20046;-46
2021/03/09 09:01:43;;;;;;;15.23;9.70;;;7.00;88.10;;;;;;20725650;28;20100;-46
2021/03/09 09:11:45;;;;;;;13.48;7.88;;;6.90;88.70;;;;;;20675429;28;20038;-46
2021/03/09 09:21:50;;;;;;;20.10;11.60;;;7.10;86.50;;;;;;20706679;28;20124;-45
2021/03/09 09:31:58;;;;;;;24.40;13.30;;;7.30;86.00;;;;;;20706338;28;20112;-46
2021/03/09 09:41:59;;;;;;;18.52;11.55;;;7.30;88.90;;;;;;20723781;28;20042;-45
2021/03/09 09:52:01;;;;;;;20.52;12.75;;;7.80;86.60;;;;;;20722407;28;20034;-45
2021/03/09 10:02:23;;;;;;;23.55;12.95;;;8.00;87.70;;;;;;20705643;28;20035;-47
2021/03/09 10:12:37;;;;;;;20.23;12.75;;;8.40;84.70;;;;;;20721846;28;20045;-46
2021/03/09 10:22:39;;;;;;;23.30;15.20;;;7.90;85.40;;;;;;20721094;28;20550;-45
2021/03/09 10:32:53;;;;;;;25.67;16.92;;;8.20;90.20;;;;;;20704203;28;20566;-45
2021/03/09 10:42:58;;;;;;;18.63;12.30;;;9.20;87.80;;;;;;20693833;28;20065;-47
2021/03/09 10:52:59;;;;;;;25.63;16.40;;;9.80;82.20;;;;;;20718321;28;20396;-45
2021/03/09 11:03:01;;;;;;;22.88;15.73;;;10.40;82.60;;;;;;20702171;28;20552;-46
2021/03/09 11:13:03;;;;;;;23.88;16.50;;;10.60;79.90;;;;;;20700103;28;20455;-45
2021/03/09 11:23:06;;;;;;;27.63;17.70;;;10.40;78.20;;;;;;20682639;28;20081;-46
2021/03/09 11:33:08;;;;;;;25.10;16.20;;;10.00;81.50;;;;;;20733332;28;20112;-45
2021/03/09 11:43:10;;;;;;;28.33;18.23;;;9.70;81.70;;;;;;20731603;28;20104;-45
2021/03/09 11:53:11;;;;;;;30.83;19.23;;;10.00;87.80;;;;;;20729774;28;20054;-45
2021/03/09 12:03:14;;;;;;;26.67;18.70;;;10.60;83.60;;;;;;20870142;23;20053;-48
2021/03/09 12:13:15;;;;;;;32.92;21.52;;;10.70;80.70;;;;;;20859660;28;20075;-49
2021/03/09 12:23:17;;;;;;;34.28;21.33;;;10.90;84.20;;;;;;20875100;28;20367;-56
2021/03/09 12:33:19;;;;;;;30.42;20.35;;;10.60;84.20;;;;;;20893097;28;20044;-47
2021/03/09 12:43:21;;;;;;;29.02;19.60;;;9.80;82.50;;;;;;20840271;28;20036;-47
2021/03/09 12:53:23;;;;;;;30.83;20.02;;;9.70;85.60;;;;;;20856107;28;20487;-45
2021/03/09 13:03:25;;;;;;;34.08;19.35;;;9.70;83.30;;;;;;20846091;28;20049;-44
2021/03/09 13:13:27;;;;;;;23.90;16.67;;;9.70;86.90;;;;;;20855056;28;20040;-45
2021/03/09 13:23:29;;;;;;;25.80;15.98;;;10.80;82.00;;;;;;20853934;28;20039;-45
2021/03/09 13:33:31;;;;;;;26.77;17.02;;;10.80;76.50;;;;;;20855049;28;20037;-46
2021/03/09 13:43:34;;;;;;;24.52;16.08;;;10.70;77.00;;;;;;20870583;28;20079;-48
2021/03/09 13:53:40;;;;;;;28.20;16.63;;;10.30;79.70;;;;;;20852237;28;20071;-48
2021/03/09 14:03:42;;;;;;;25.65;16.50;;;9.50;78.00;;;;;;20887451;28;20053;-46
2021/03/09 14:13:45;;;;;;;24.15;15.25;;;8.40;82.50;;;;;;20886840;28;20037;-48
2021/03/09 14:23:50;;;;;;;26.23;14.90;;;8.50;82.00;;;;;;20853008;28;20032;-47
2021/03/09 14:33:52;;;;;;;21.67;13.95;;;7.90;82.40;;;;;;20851874;28;20041;-55
2021/03/09 14:43:54;;;;;;;22.27;14.32;;;7.40;84.30;;;;;;20882617;28;20075;-47
2021/03/09 14:53:56;;;;;;;22.30;13.32;;;6.60;86.40;;;;;;20899397;28;20063;-51
2021/03/09 15:03:59;;;;;;;20.92;13.63;;;6.20;87.90;;;;;;20900116;28;20087;-46
2021/03/09 15:14:01;;;;;;;24.35;14.23;;;5.80;89.40;;;;;;20863339;28;20037;-49
2021/03/09 15:24:04;;;;;;;22.85;13.23;;;5.30;91.60;;;;;;20863352;28;20029;-47
2021/03/09 15:34:06;;;;;;;24.13;13.25;;;5.00;92.20;;;;;;20879311;28;20057;-47
2021/03/09 15:44:08;;;;;;;21.42;12.38;;;4.60;93.00;;;;;;20895678;28;20055;-47
2021/03/09 15:54:12;;;;;;;23.50;12.55;;;4.20;93.80;;;;;;20845316;28;20445;-46
2021/03/09 16:04:14;;;;;;;20.25;11.70;;;3.90;95.20;;;;;;20860746;28;20114;-51
2021/03/09 16:14:16;;;;;;;20.58;11.68;;;3.70;95.70;;;;;;20843116;28;20094;-46
2021/03/09 16:24:18;;;;;;;20.13;11.27;;;3.60;96.30;;;;;;20858279;28;20049;-47
2021/03/09 16:34:20;;;;;;;18.67;11.25;;;3.40;97.00;;;;;;20842261;28;20498;-50
2021/03/09 16:44:22;;;;;;;19.63;11.65;;;3.00;97.50;;;;;;20888749;28;20041;-46
2021/03/09 16:54:24;;;;;;;20.33;11.48;;;2.70;97.90;;;;;;20900750;28;20108;-51
2021/03/09 17:04:26;;;;;;;21.08;11.70;;;2.40;99.30;;;;;;20856987;28;20052;-46
2021/03/09 17:14:28;;;;;;;23.67;12.40;;;1.90;99.90;;;;;;20888899;28;20044;-47
2021/03/09 17:24:31;;;;;;;22.52;12.05;;;1.40;99.90;;;;;;20894113;28;20095;-46
2021/03/09 17:34:33;;;;;;;23.65;12.80;;;0.90;99.90;;;;;;20888128;28;20479;-46
2021/03/09 17:44:40;;;;;;;25.60;13.52;;;0.70;99.90;;;;;;20869298;28;20102;-50
2021/03/09 17:54:42;;;;;;;26.65;12.40;;;0.70;99.90;;;;;;20835631;28;20063;-47
2021/03/09 18:04:45;;;;;;;22.80;12.23;;;0.80;99.90;;;;;;20869852;28;20457;-46
2021/03/09 18:14:48;;;;;;;23.80;11.70;;;0.80;99.90;;;;;;20851472;28;20045;-50
2021/03/09 18:24:51;;;;;;;23.55;12.00;;;0.90;99.90;;;;;;20851225;28;20102;-55
2021/03/09 18:34:53;;;;;;;23.77;12.02;;;1.00;99.90;;;;;;20883569;28;20094;-47
2021/03/09 18:44:55;;;;;;;19.80;11.30;;;1.00;99.90;;;;;;20884429;28;20128;-46
2021/03/09 18:54:57;;;;;;;23.02;11.73;;;0.90;99.90;;;;;;20850391;28;20041;-53
2021/03/09 19:04:59;;;;;;;20.58;12.07;;;0.70;99.90;;;;;;20874815;28;20110;-52
2021/03/09 19:15:02;;;;;;;19.70;11.23;;;0.70;99.90;;;;;;20897683;28;20033;-52
2021/03/09 19:25:05;;;;;;;24.52;12.20;;;0.60;99.90;;;;;;20863513;28;20379;-46
2021/03/09 19:35:08;;;;;;;23.00;11.90;;;0.50;99.90;;;;;;20847356;28;20497;-46
2021/03/09 19:45:12;;;;;;;28.10;12.95;;;0.50;99.90;;;;;;20896505;28;20101;-45
2021/03/09 19:55:15;;;;;;;27.73;12.70;;;0.40;99.90;;;;;;20894696;28;20119;-52
2021/03/09 20:05:19;;;;;;;25.38;13.68;;;0.40;99.90;;;;;;20895262;28;20057;-48
2021/03/09 20:15:24;;;;;;;25.77;13.05;;;0.40;99.90;;;;;;20874048;28;20111;-51
2021/03/09 20:25:27;;;;;;;24.48;13.45;;;0.40;99.90;;;;;;20828180;28;20029;-46
2021/03/09 20:35:34;;;;;;;25.58;13.57;;;0.50;99.90;;;;;;20892143;28;20094;-49
2021/03/09 20:45:38;;;;;;;28.42;14.88;;;0.70;99.90;;;;;;20874561;28;20074;-48
2021/03/09 20:55:40;;;;;;;28.08;15.88;;;0.70;99.90;;;;;;20873057;28;20115;-55
2021/03/09 21:05:42;;;;;;;27.63;14.88;;;0.70;99.90;;;;;;20889280;28;20048;-48
2021/03/09 21:15:46;;;;;;;29.40;15.75;;;0.70;99.90;;;;;;20855759;28;20044;-46
2021/03/09 21:25:48;;;;;;;31.02;15.18;;;0.70;99.90;;;;;;20867202;28;20059;-46
2021/03/09 21:35:49;;;;;;;36.10;18.42;;;0.60;99.90;;;;;;20886962;28;20048;-49
2021/03/09 21:45:51;;;;;;;38.75;18.55;;;0.50;99.90;;;;;;20854140;28;20086;-48
2021/03/09 21:55:53;;;;;;;38.42;17.85;;;0.50;99.90;;;;;;20886739;28;20040;-45
2021/03/09 22:05:55;;;;;;;25.98;13.85;;;0.60;99.90;;;;;;20868016;28;20052;-47
2021/03/09 22:15:58;;;;;;;46.50;20.88;;;0.80;99.90;;;;;;20865497;28;20118;-46
2021/03/09 22:26:01;;;;;;;34.20;18.42;;;0.60;99.90;;;;;;20866420;28;20037;-46
2021/03/09 22:36:05;;;;;;;23.88;12.65;;;0.30;99.90;;;;;;20869546;28;20106;-48
2021/03/09 22:46:07;;;;;;;21.63;11.80;;;0.20;99.90;;;;;;20851288;28;20033;-46
2021/03/09 22:56:09;;;;;;;19.15;10.77;;;0.40;99.90;;;;;;20900003;28;20399;-48
2021/03/09 23:06:11;;;;;;;11.73;6.00;;;0.30;99.90;;;;;;20896830;28;20106;-47
2021/03/09 23:16:13;;;;;;;6.70;3.80;;;0.30;99.90;;;;;;20899495;28;20044;-46
2021/03/09 23:26:15;;;;;;;6.93;3.78;;;0.20;99.90;;;;;;20863614;28;20112;-48
2021/03/09 23:36:18;;;;;;;6.70;3.55;;;0.10;99.90;;;;;;20896965;28;20095;-49
2021/03/09 23:46:19;;;;;;;5.47;2.95;;;0.00;99.90;;;;;;20863025;28;20037;-49
2021/03/09 23:56:22;;;;;;;6.20;2.95;;;-0.10;99.90;;;;;;20844296;28;20045;-49
